Time;durP1;ratioP1;P1;durP2;ratioP2;P2;SDS_P1;SDS_P2;PMS_P1;PMS_P2;Temp;Humidity;BMP_temperature;BMP_pressure;BME280_temperature;BME280_humidity;BME280_pressure;Samples;Min_cycle;Max_cycle;Signal;HPM_P1;HPM_P2
2022/01/25 00:33:32;;;;;;;17.55;11.02;;;7.30;99.90;;;;;;5024033;28;20119;-77
2022/01/25 00:36:01;;;;;;;18.77;11.95;;;7.30;99.90;;;;;;5028777;28;20207;-74
2022/01/25 00:38:27;;;;;;;17.33;11.48;;;7.30;99.90;;;;;;5033035;28;20120;-73
2022/01/25 00:40:55;;;;;;;16.85;11.55;;;7.30;99.90;;;;;;5033083;28;20531;-72
2022/01/25 00:43:23;;;;;;;19.80;13.27;;;7.30;99.90;;;;;;5026493;28;20042;-73
2022/01/25 00:45:52;;;;;;;18.45;12.90;;;7.30;99.90;;;;;;5035887;28;20032;-77
2022/01/25 00:48:29;;;;;;;22.50;13.40;;;7.30;99.90;;;;;;5041994;28;20124;-77
2022/01/25 00:51:13;;;;;;;22.08;13.65;;;7.30;99.90;;;;;;5027411;28;20029;-72
2022/01/25 00:54:00;;;;;;;21.40;12.98;;;7.30;99.90;;;;;;5042019;28;20029;-76
2022/01/25 00:56:34;;;;;;;21.08;13.30;;;7.30;99.90;;;;;;5026387;28;20048;-72
2022/01/25 00:59:03;;;;;;;20.63;13.50;;;7.30;99.90;;;;;;5041857;28;20048;-71
2022/01/25 01:01:30;;;;;;;21.80;14.13;;;7.40;99.90;;;;;;5036502;28;20082;-76
2022/01/25 01:03:57;;;;;;;19.98;14.07;;;7.60;99.90;;;;;;5042338;28;20030;-76
2022/01/25 01:06:24;;;;;;;21.23;13.45;;;7.50;99.90;;;;;;5040259;28;20615;-72
2022/01/25 01:08:50;;;;;;;21.15;13.93;;;7.50;99.90;;;;;;5042696;28;20076;-72
2022/01/25 01:11:24;;;;;;;20.63;14.73;;;7.50;99.90;;;;;;5038527;28;20042;-74
2022/01/25 01:30:28;;;;;;;25.27;14.85;;;7.50;99.90;;;;;;5037356;28;20107;-75
2022/01/25 01:36:24;;;;;;;23.42;14.75;;;7.60;99.90;;;;;;5041239;28;20044;-73
2022/01/25 01:43:59;;;;;;;19.50;14.10;;;7.50;99.90;;;;;;5039048;28;20072;-70
2022/01/25 01:48:58;;;;;;;18.80;13.52;;;7.40;99.90;;;;;;5045003;28;20710;-72
2022/01/25 01:51:29;;;;;;;18.90;13.23;;;7.30;99.90;;;;;;5038455;28;20575;-71
2022/01/25 01:53:58;;;;;;;18.60;13.60;;;7.30;99.90;;;;;;5043416;28;20041;-73
2022/01/25 01:56:27;;;;;;;18.30;12.68;;;7.40;99.90;;;;;;5040932;28;20102;-73
2022/01/25 01:58:56;;;;;;;20.85;14.07;;;7.40;99.90;;;;;;5053855;28;20044;-71
2022/01/25 02:01:24;;;;;;;18.45;13.30;;;7.30;99.90;;;;;;5041727;28;20053;-71
2022/01/25 02:03:52;;;;;;;22.65;13.80;;;7.30;99.90;;;;;;5043276;28;20106;-70
2022/01/25 02:06:19;;;;;;;18.38;13.18;;;7.40;99.90;;;;;;5030660;28;20132;-77
2022/01/25 02:08:45;;;;;;;18.10;12.90;;;7.30;99.90;;;;;;5042644;28;20319;-71
2022/01/25 02:11:13;;;;;;;17.60;13.20;;;7.30;99.90;;;;;;5039507;28;20427;-76
2022/01/25 02:13:41;;;;;;;18.77;13.15;;;7.20;99.90;;;;;;5041067;28;20025;-75
2022/01/25 02:16:14;;;;;;;19.95;13.07;;;7.20;99.90;;;;;;5040288;28;20037;-73
2022/01/25 02:24:10;;;;;;;19.50;13.90;;;7.00;99.90;;;;;;5046479;28;20491;-71
2022/01/25 02:26:36;;;;;;;19.90;12.95;;;7.00;99.90;;;;;;5042652;28;20051;-73
2022/01/25 02:29:03;;;;;;;21.00;13.02;;;6.90;99.90;;;;;;5043985;28;20017;-76
2022/01/25 02:31:29;;;;;;;20.05;13.52;;;6.90;99.90;;;;;;5045352;28;20040;-73
2022/01/25 02:33:55;;;;;;;21.52;14.20;;;6.90;99.90;;;;;;5038188;28;20481;-75
2022/01/25 02:36:26;;;;;;;21.05;13.25;;;6.90;99.90;;;;;;5026631;28;20468;-74
2022/01/25 02:38:53;;;;;;;20.48;12.95;;;7.00;99.90;;;;;;5049462;28;20757;-71
2022/01/25 02:41:21;;;;;;;20.15;12.63;;;7.00;99.90;;;;;;5041165;28;20049;-76
2022/01/25 02:43:47;;;;;;;22.98;13.20;;;7.00;99.90;;;;;;5037263;28;20030;-73
2022/01/25 02:49:02;;;;;;;19.73;13.38;;;7.00;99.90;;;;;;5024790;28;20029;-72
2022/01/25 02:51:35;;;;;;;20.05;12.95;;;6.90;99.90;;;;;;5038367;28;20021;-73
2022/01/25 02:54:02;;;;;;;19.70;13.20;;;6.90;99.90;;;;;;5042532;28;20392;-71
2022/01/25 02:56:28;;;;;;;19.02;12.23;;;6.90;99.90;;;;;;5042253;28;20035;-72
2022/01/25 02:58:55;;;;;;;23.58;13.02;;;6.90;99.90;;;;;;5048878;28;20025;-72
2022/01/25 03:01:22;;;;;;;20.15;14.02;;;7.00;99.90;;;;;;5037184;28;20128;-77
2022/01/25 03:03:49;;;;;;;23.98;13.50;;;6.90;99.90;;;;;;5037999;28;20988;-70
2022/01/25 03:06:18;;;;;;;17.83;12.90;;;7.00;99.90;;;;;;5036578;28;20091;-74
2022/01/25 03:08:44;;;;;;;19.38;13.35;;;7.10;99.90;;;;;;5048065;28;20056;-71
2022/01/25 03:11:11;;;;;;;20.23;13.30;;;7.00;99.90;;;;;;5047479;28;20059;-73
2022/01/25 03:13:49;;;;;;;20.15;13.52;;;7.00;99.90;;;;;;5035429;28;20423;-71
2022/01/25 03:16:38;;;;;;;20.63;13.77;;;7.00;99.90;;;;;;5029966;28;20128;-71
2022/01/25 03:19:41;;;;;;;18.48;13.40;;;7.00;99.90;;;;;;5035351;28;20049;-76
2022/01/25 03:24:55;;;;;;;23.50;14.20;;;7.00;99.90;;;;;;5036576;28;20056;-77
2022/01/25 03:27:21;;;;;;;20.20;13.50;;;7.00;99.90;;;;;;5018936;28;20048;-71
2022/01/25 03:29:48;;;;;;;24.95;14.23;;;7.00;99.90;;;;;;5043194;28;20037;-72
2022/01/25 03:32:14;;;;;;;20.85;14.35;;;7.00;99.90;;;;;;5052272;28;20525;-76
2022/01/25 03:34:41;;;;;;;22.42;14.95;;;6.90;99.90;;;;;;5039195;28;20052;-72
2022/01/25 03:37:07;;;;;;;21.20;14.02;;;7.00;99.90;;;;;;5038495;28;20045;-76
2022/01/25 03:39:33;;;;;;;21.25;14.40;;;6.90;99.90;;;;;;5039021;28;20041;-74
2022/01/25 03:42:06;;;;;;;24.80;14.10;;;6.90;99.90;;;;;;5041143;28;20096;-71
2022/01/25 03:44:32;;;;;;;19.60;14.35;;;6.90;99.90;;;;;;5039299;28;20033;-75
2022/01/25 03:47:05;;;;;;;21.60;14.85;;;6.80;99.90;;;;;;5044869;28;20041;-71
2022/01/25 03:52:30;;;;;;;24.13;15.20;;;6.80;99.90;;;;;;5037564;28;20048;-72
2022/01/25 03:54:58;;;;;;;22.05;14.35;;;6.80;99.90;;;;;;5037151;28;20044;-72
2022/01/25 03:57:26;;;;;;;21.38;15.15;;;6.80;99.90;;;;;;5057242;28;20044;-75
2022/01/25 03:59:53;;;;;;;22.55;14.73;;;6.80;99.90;;;;;;5037413;28;20051;-70
2022/01/25 04:02:20;;;;;;;23.38;14.32;;;6.70;99.90;;;;;;5038305;28;20041;-73
2022/01/25 04:04:47;;;;;;;20.73;14.05;;;6.70;99.90;;;;;;5041480;28;20532;-72
2022/01/25 04:07:15;;;;;;;24.52;14.48;;;6.60;99.90;;;;;;5036178;28;20041;-73
2022/01/25 04:09:41;;;;;;;23.90;14.02;;;6.60;99.90;;;;;;5042204;28;20113;-76
2022/01/25 04:12:08;;;;;;;21.33;14.57;;;6.60;99.90;;;;;;5035538;28;20128;-74
2022/01/25 04:14:35;;;;;;;23.33;14.52;;;6.60;99.90;;;;;;5020997;28;20512;-71
2022/01/25 04:17:05;;;;;;;20.15;14.45;;;6.60;99.90;;;;;;5035768;28;20037;-76
2022/01/25 04:20:10;;;;;;;23.42;15.57;;;6.60;99.90;;;;;;5031485;28;20492;-71
2022/01/25 04:25:11;;;;;;;24.10;15.07;;;6.60;99.90;;;;;;5039165;28;20053;-73
2022/01/25 04:27:38;;;;;;;24.85;15.02;;;6.60;99.90;;;;;;5036255;28;20044;-71
2022/01/25 04:30:06;;;;;;;22.50;15.48;;;6.50;99.90;;;;;;5039266;28;20123;-72
2022/01/25 04:35:14;;;;;;;19.05;14.85;;;6.80;99.90;;;;;;5037815;28;20045;-74
2022/01/25 04:56:49;;;;;;;23.23;14.55;;;6.80;99.90;;;;;;5040835;28;20041;-74
2022/01/25 05:01:50;;;;;;;24.38;16.10;;;6.70;99.90;;;;;;5037856;28;20440;-76
2022/01/25 05:04:24;;;;;;;23.67;15.93;;;6.60;99.90;;;;;;5036660;28;20033;-76
2022/01/25 05:06:55;;;;;;;27.15;16.17;;;6.60;99.90;;;;;;5045827;28;20052;-76
2022/01/25 05:09:21;;;;;;;22.90;15.82;;;6.70;99.90;;;;;;5045455;28;20103;-70
2022/01/25 05:11:49;;;;;;;28.02;15.50;;;6.80;99.90;;;;;;5041116;28;20043;-76
2022/01/25 05:14:23;;;;;;;21.80;15.07;;;6.70;99.90;;;;;;5045543;28;20041;-71
2022/01/25 05:16:53;;;;;;;21.02;15.30;;;6.70;99.90;;;;;;5040877;28;20563;-70
2022/01/25 05:24:47;;;;;;;20.95;14.68;;;6.60;99.90;;;;;;5026135;28;20041;-73
2022/01/25 05:27:17;;;;;;;24.52;15.80;;;6.60;99.90;;;;;;5043814;28;20041;-76
2022/01/25 05:29:43;;;;;;;23.73;15.98;;;6.60;99.90;;;;;;5038318;28;20102;-77
2022/01/25 05:32:09;;;;;;;27.30;15.93;;;6.60;99.90;;;;;;5044468;28;20383;-72
2022/01/25 05:34:35;;;;;;;21.67;15.27;;;6.60;99.90;;;;;;5038614;28;20044;-72
2022/01/25 05:37:03;;;;;;;23.77;15.68;;;6.60;99.90;;;;;;5042743;28;20053;-76
2022/01/25 05:39:33;;;;;;;22.63;15.90;;;6.50;99.90;;;;;;5042228;28;20108;-74
2022/01/25 05:44:57;;;;;;;22.83;15.43;;;6.50;99.90;;;;;;5044136;28;20534;-76
2022/01/25 05:47:28;;;;;;;23.83;14.93;;;6.60;99.90;;;;;;5038445;28;20119;-72
2022/01/25 05:49:55;;;;;;;19.92;15.20;;;6.50;99.90;;;;;;5044966;28;20060;-75
2022/01/25 05:52:21;;;;;;;20.95;16.05;;;6.50;99.90;;;;;;5043993;28;20377;-72
2022/01/25 05:54:48;;;;;;;21.58;14.95;;;6.50;99.90;;;;;;5039922;28;20132;-76
2022/01/25 05:57:16;;;;;;;24.88;16.60;;;6.50;99.90;;;;;;5040631;28;20095;-71
2022/01/25 05:59:43;;;;;;;24.50;17.00;;;6.50;99.90;;;;;;5035375;28;20056;-76
2022/01/25 06:02:09;;;;;;;26.85;16.60;;;6.50;99.90;;;;;;5040109;28;20106;-71
2022/01/25 06:04:35;;;;;;;26.60;16.30;;;6.70;99.90;;;;;;5045045;28;20055;-76
2022/01/25 06:07:02;;;;;;;28.90;16.08;;;6.60;99.90;;;;;;5043574;28;20055;-71
2022/01/25 06:09:30;;;;;;;25.08;16.52;;;6.60;99.90;;;;;;5038089;28;20124;-73
2022/01/25 06:11:56;;;;;;;22.95;16.02;;;6.60;99.90;;;;;;5041044;28;20388;-74
2022/01/25 06:14:23;;;;;;;25.65;16.25;;;6.60;99.90;;;;;;5042128;28;20079;-70
2022/01/25 06:16:49;;;;;;;21.95;15.68;;;6.60;99.90;;;;;;5035836;28;20120;-76
2022/01/25 06:19:15;;;;;;;21.17;14.13;;;6.60;99.90;;;;;;5027786;28;20045;-73
2022/01/25 06:21:41;;;;;;;23.92;15.60;;;6.80;99.90;;;;;;5043786;28;20041;-70
2022/01/25 06:24:06;;;;;;;22.52;14.98;;;6.90;99.90;;;;;;5022888;28;20060;-74
2022/01/25 06:26:32;;;;;;;22.08;14.15;;;7.00;99.90;;;;;;5037971;28;20040;-76
2022/01/25 06:29:00;;;;;;;26.55;15.50;;;7.00;99.90;;;;;;5039576;28;20037;-73
2022/01/25 06:31:28;;;;;;;28.30;15.38;;;7.00;99.90;;;;;;5041544;28;20520;-74
2022/01/25 06:33:54;;;;;;;25.98;15.73;;;7.00;99.90;;;;;;5047214;28;20033;-72
2022/01/25 06:36:19;;;;;;;26.60;16.27;;;7.00;99.90;;;;;;5036729;28;20432;-73
2022/01/25 06:38:46;;;;;;;24.75;15.50;;;7.00;99.90;;;;;;5041508;28;20037;-76
2022/01/25 06:41:14;;;;;;;26.98;16.98;;;6.90;99.90;;;;;;5045574;28;20033;-72
2022/01/25 06:43:42;;;;;;;22.35;15.60;;;7.00;99.90;;;;;;5043175;28;20028;-75
2022/01/25 06:46:08;;;;;;;24.60;15.88;;;7.00;99.90;;;;;;5042193;28;20037;-71
2022/01/25 06:48:35;;;;;;;25.20;15.30;;;7.00;99.90;;;;;;5044096;28;20473;-76
2022/01/25 06:51:01;;;;;;;24.88;15.18;;;7.00;99.90;;;;;;5042991;28;20065;-71
2022/01/25 06:53:27;;;;;;;26.00;15.98;;;7.00;99.90;;;;;;5034254;28;20029;-72
2022/01/25 06:55:54;;;;;;;22.05;14.15;;;7.00;99.90;;;;;;5051266;28;20034;-76
2022/01/25 06:58:21;;;;;;;22.67;14.73;;;7.10;99.90;;;;;;5044775;28;20489;-70
2022/01/25 07:00:47;;;;;;;21.65;14.50;;;7.20;99.90;;;;;;5045811;28;20041;-77
2022/01/25 07:03:13;;;;;;;25.23;14.80;;;7.20;99.90;;;;;;5040208;28;20032;-72
2022/01/25 07:05:41;;;;;;;29.42;16.00;;;7.10;99.90;;;;;;5034189;28;20038;-74
2022/01/25 07:08:09;;;;;;;24.63;16.08;;;7.20;99.90;;;;;;5036004;28;20044;-71
2022/01/25 07:10:37;;;;;;;28.27;15.90;;;7.10;99.90;;;;;;5037486;28;20083;-76
2022/01/25 07:13:03;;;;;;;25.63;14.60;;;7.10;99.90;;;;;;5019792;28;20041;-71
2022/01/25 07:15:29;;;;;;;25.98;15.52;;;7.10;99.90;;;;;;5036713;28;20064;-76
2022/01/25 07:17:56;;;;;;;26.00;16.25;;;7.20;99.90;;;;;;5040402;28;20049;-72
2022/01/25 07:20:21;;;;;;;25.30;14.93;;;7.10;99.90;;;;;;5038042;28;20037;-73
2022/01/25 07:22:49;;;;;;;28.58;16.40;;;7.10;99.90;;;;;;5033057;28;20033;-75
2022/01/25 07:25:15;;;;;;;26.58;14.80;;;7.00;99.90;;;;;;5036179;28;20037;-70
2022/01/25 07:27:42;;;;;;;25.35;14.82;;;7.10;99.90;;;;;;5035934;28;20056;-72
2022/01/25 07:30:09;;;;;;;24.52;14.93;;;7.10;99.90;;;;;;5038830;28;20045;-73
2022/01/25 07:32:36;;;;;;;21.48;14.32;;;7.20;99.90;;;;;;5040748;28;20033;-73
2022/01/25 07:35:02;;;;;;;23.33;14.55;;;7.10;99.90;;;;;;5039761;28;20038;-71
2022/01/25 07:37:29;;;;;;;27.15;14.88;;;7.10;99.90;;;;;;5039164;28;20404;-72
2022/01/25 07:39:57;;;;;;;23.10;14.02;;;7.00;99.90;;;;;;5039610;28;20491;-76
2022/01/25 07:42:23;;;;;;;20.15;13.68;;;7.20;99.90;;;;;;5034272;28;20142;-74
2022/01/25 07:44:50;;;;;;;25.50;14.77;;;7.20;99.90;;;;;;5038670;28;20132;-72
2022/01/25 07:47:18;;;;;;;28.38;15.85;;;7.20;99.90;;;;;;5040267;28;20533;-72
2022/01/25 07:49:44;;;;;;;25.45;15.32;;;7.20;99.90;;;;;;5034295;28;20036;-72
2022/01/25 07:52:10;;;;;;;26.67;14.65;;;7.30;99.90;;;;;;5050395;28;20484;-75
2022/01/25 07:54:36;;;;;;;22.90;14.30;;;7.30;99.90;;;;;;5040138;28;20121;-77
2022/01/25 07:57:02;;;;;;;21.70;14.00;;;7.40;99.90;;;;;;5035468;28;20111;-71
2022/01/25 07:59:29;;;;;;;25.70;14.05;;;7.40;99.90;;;;;;5037414;28;20632;-72
2022/01/25 08:01:56;;;;;;;25.00;12.80;;;7.40;99.90;;;;;;5039401;28;20032;-77
2022/01/25 08:04:23;;;;;;;23.67;13.15;;;7.50;99.90;;;;;;5041792;28;20067;-71
2022/01/25 08:06:49;;;;;;;25.52;14.40;;;7.70;99.90;;;;;;5034562;28;20069;-75
2022/01/25 08:09:16;;;;;;;26.95;13.70;;;7.70;99.90;;;;;;5044195;28;20125;-74
2022/01/25 08:11:44;;;;;;;24.17;13.85;;;7.80;99.90;;;;;;5038683;28;20044;-72
2022/01/25 08:14:13;;;;;;;26.73;13.07;;;7.90;99.90;;;;;;5022911;28;20057;-72
2022/01/25 08:16:46;;;;;;;25.50;12.45;;;7.90;99.90;;;;;;5039322;28;20037;-73
2022/01/25 08:19:14;;;;;;;21.13;13.00;;;7.90;99.90;;;;;;5027112;28;20073;-76
2022/01/25 08:21:41;;;;;;;20.77;13.18;;;8.00;99.90;;;;;;5036210;28;20452;-72
2022/01/25 08:24:13;;;;;;;15.70;11.25;;;8.20;99.90;;;;;;5039599;28;20062;-71
2022/01/25 08:26:41;;;;;;;17.75;12.82;;;8.30;99.90;;;;;;5040367;28;20055;-77
2022/01/25 08:29:07;;;;;;;23.45;12.02;;;8.40;99.90;;;;;;5037639;28;20553;-74
2022/01/25 08:31:39;;;;;;;25.83;14.38;;;8.60;99.90;;;;;;5036181;28;20540;-76
2022/01/25 08:34:13;;;;;;;25.80;13.55;;;10.00;99.90;;;;;;5036353;28;21079;-72
2022/01/25 08:36:41;;;;;;;24.15;13.70;;;11.90;99.90;;;;;;5038635;28;20855;-71
2022/01/25 08:39:07;;;;;;;19.83;12.23;;;12.90;99.90;;;;;;5052479;28;20039;-72
2022/01/25 08:41:34;;;;;;;21.98;12.63;;;14.00;99.90;;;;;;5043062;28;20068;-75
2022/01/25 08:44:01;;;;;;;17.88;11.90;;;14.60;99.90;;;;;;5011974;28;20037;-73
2022/01/25 08:46:27;;;;;;;23.27;11.30;;;15.50;99.20;;;;;;5012721;28;20049;-72
2022/01/25 08:48:53;;;;;;;19.55;11.63;;;16.00;97.10;;;;;;5022043;28;20040;-75
2022/01/25 08:51:19;;;;;;;17.65;11.05;;;16.60;96.70;;;;;;5009078;28;20042;-78
2022/01/25 08:53:45;;;;;;;20.75;12.00;;;17.30;95.00;;;;;;5035579;28;20033;-72
2022/01/25 08:56:12;;;;;;;21.20;12.93;;;17.50;94.90;;;;;;5033171;28;20025;-72
2022/01/25 08:58:40;;;;;;;20.02;12.15;;;17.50;94.90;;;;;;5033853;28;20048;-77
2022/01/25 09:01:07;;;;;;;16.88;11.10;;;17.50;93.80;;;;;;5025105;28;20135;-72
2022/01/25 09:03:33;;;;;;;18.73;12.00;;;17.80;94.10;;;;;;5041442;28;20128;-78
2022/01/25 09:05:59;;;;;;;15.77;11.95;;;18.00;93.10;;;;;;5023816;28;20091;-73
2022/01/25 09:08:28;;;;;;;17.33;12.52;;;17.40;93.10;;;;;;5030081;28;20564;-72
2022/01/25 09:10:59;;;;;;;17.42;12.00;;;17.80;93.50;;;;;;5031779;28;20041;-72
2022/01/25 09:13:26;;;;;;;18.15;12.50;;;18.10;93.30;;;;;;5044372;28;20041;-72
2022/01/25 09:15:53;;;;;;;17.77;12.40;;;17.50;93.40;;;;;;5038237;28;20091;-78
2022/01/25 09:18:20;;;;;;;21.25;12.38;;;17.00;93.60;;;;;;5022696;28;20045;-72
2022/01/25 09:20:48;;;;;;;21.45;12.98;;;16.50;93.80;;;;;;5038879;28;20041;-78
2022/01/25 09:23:18;;;;;;;19.92;12.10;;;15.70;94.60;;;;;;5020638;28;20113;-73
2022/01/25 09:25:44;;;;;;;13.27;8.73;;;14.90;95.10;;;;;;5022743;28;20040;-73
2022/01/25 09:28:12;;;;;;;12.73;7.55;;;14.40;95.40;;;;;;5020714;28;20527;-74
2022/01/25 09:30:39;;;;;;;11.05;7.65;;;13.40;96.90;;;;;;5011839;28;20487;-74
2022/01/25 09:33:06;;;;;;;18.85;7.93;;;13.00;97.80;;;;;;5020676;28;20044;-73
2022/01/25 09:35:33;;;;;;;16.48;7.80;;;12.80;98.80;;;;;;5027136;28;20098;-78
2022/01/25 09:38:00;;;;;;;13.13;7.70;;;12.60;99.50;;;;;;5025734;28;20037;-75
2022/01/25 09:40:26;;;;;;;13.10;7.72;;;12.40;99.90;;;;;;5004175;28;20033;-78
2022/01/25 09:42:56;;;;;;;14.52;7.47;;;12.60;99.90;;;;;;5025618;28;20048;-75
2022/01/25 09:45:22;;;;;;;15.65;8.00;;;12.30;99.90;;;;;;5038917;28;20044;-74
2022/01/25 09:47:53;;;;;;;15.57;8.68;;;12.50;99.90;;;;;;5022462;28;20053;-75
2022/01/25 09:50:21;;;;;;;15.02;8.23;;;13.00;99.90;;;;;;5033699;28;20041;-77
2022/01/25 09:52:48;;;;;;;15.38;7.75;;;13.10;99.60;;;;;;5028415;28;20064;-73
2022/01/25 09:55:18;;;;;;;25.40;9.48;;;13.70;98.90;;;;;;5021942;28;20068;-73
2022/01/25 09:57:45;;;;;;;14.18;8.48;;;13.80;98.50;;;;;;5022099;28;20045;-74
2022/01/25 10:00:15;;;;;;;15.55;8.00;;;14.00;98.20;;;;;;5032089;28;20064;-73
2022/01/25 10:02:50;;;;;;;12.88;8.18;;;13.80;97.80;;;;;;5045767;28;20037;-78
2022/01/25 10:05:17;;;;;;;14.40;8.07;;;14.00;98.30;;;;;;5044335;28;20696;-73
2022/01/25 10:07:43;;;;;;;16.58;8.40;;;14.10;97.80;;;;;;5043553;28;20113;-76
2022/01/25 10:10:10;;;;;;;15.65;7.88;;;14.20;98.00;;;;;;5043971;28;20045;-79
2022/01/25 10:12:37;;;;;;;10.02;7.22;;;14.30;97.90;;;;;;5038414;28;20045;-76
2022/01/25 10:15:06;;;;;;;12.63;7.57;;;14.70;97.10;;;;;;5025108;28;20033;-79
2022/01/25 10:17:34;;;;;;;13.73;8.27;;;14.70;97.30;;;;;;5026316;28;20041;-79
2022/01/25 10:20:00;;;;;;;10.68;7.15;;;15.00;96.70;;;;;;5021534;28;20374;-76
2022/01/25 10:22:27;;;;;;;10.38;7.40;;;14.40;96.60;;;;;;5026303;28;20049;-78
2022/01/25 10:24:53;;;;;;;16.08;8.25;;;14.70;96.80;;;;;;5020425;28;20898;-75
2022/01/25 10:27:57;;;;;;;13.27;7.85;;;14.30;97.20;;;;;;5024625;28;20053;-75
2022/01/25 10:30:12;;;;;;;14.93;8.70;;;14.90;97.10;;;;;;5028303;28;20045;-75
2022/01/25 10:32:39;;;;;;;;;;;15.60;96.40;;;;;;5026975;28;20041;-79
2022/01/25 10:35:16;;;;;;;17.67;12.45;;;16.00;95.90;;;;;;5028293;28;19924;-74
2022/01/25 10:37:42;;;;;;;22.50;15.57;;;16.20;95.20;;;;;;5008459;28;20041;-76
2022/01/25 10:40:09;;;;;;;25.13;15.75;;;16.20;95.10;;;;;;5027277;28;20041;-74
2022/01/25 10:42:35;;;;;;;33.13;17.33;;;15.90;94.90;;;;;;5029568;28;20065;-72
2022/01/25 10:45:17;;;;;;;24.60;17.00;;;16.30;94.60;;;;;;5022490;28;20105;-73
2022/01/25 10:47:42;;;;;;;30.80;17.85;;;16.40;94.40;;;;;;5017927;28;20045;-74
2022/01/25 10:50:18;;;;;;;28.45;19.10;;;16.70;94.00;;;;;;5016224;28;20051;-73
2022/01/25 10:52:46;;;;;;;33.00;17.70;;;16.90;93.80;;;;;;5022563;28;20045;-74
2022/01/25 10:55:13;;;;;;;29.70;17.80;;;16.90;93.90;;;;;;5001687;28;20048;-74
2022/01/25 10:57:40;;;;;;;29.02;17.55;;;17.20;93.60;;;;;;5020879;28;20045;-73
2022/01/25 11:00:12;;;;;;;26.60;17.73;;;17.50;93.20;;;;;;5018000;28;20037;-74
2022/01/25 11:02:51;;;;;;;29.98;18.70;;;17.50;93.40;;;;;;5020810;28;20045;-74
2022/01/25 11:05:18;;;;;;;26.45;17.73;;;17.90;92.80;;;;;;5025308;28;20079;-74
2022/01/25 11:07:46;;;;;;;30.55;19.17;;;17.90;92.90;;;;;;5019428;28;20041;-76
2022/01/25 11:10:19;;;;;;;31.10;18.88;;;18.10;92.60;;;;;;5000718;28;20057;-77
2022/01/25 11:13:07;;;;;;;32.00;18.13;;;18.30;92.40;;;;;;5018822;28;20041;-73
2022/01/25 11:15:32;;;;;;;32.38;18.30;;;18.40;92.30;;;;;;5019848;28;20033;-75
2022/01/25 11:17:58;;;;;;;36.47;18.92;;;18.70;91.80;;;;;;5024948;28;20052;-76
2022/01/25 11:20:25;;;;;;;32.30;18.27;;;18.80;91.90;;;;;;5010672;28;20117;-76
2022/01/25 11:22:52;;;;;;;35.75;18.10;;;18.90;91.60;;;;;;5046104;28;20043;-73
2022/01/25 11:25:23;;;;;;;35.60;18.27;;;18.60;91.80;;;;;;5018003;28;20045;-73
2022/01/25 11:27:50;;;;;;;17.87;12.73;;;18.60;91.90;;;;;;5014070;28;20045;-77
2022/01/25 11:30:20;;;;;;;21.30;12.95;;;18.60;91.50;;;;;;5008930;28;20045;-76
2022/01/25 11:32:49;;;;;;;22.08;13.43;;;19.00;91.60;;;;;;5018116;28;20045;-75
2022/01/25 11:35:20;;;;;;;18.52;11.88;;;18.10;91.50;;;;;;5017434;28;20048;-73
2022/01/25 11:37:49;;;;;;;18.55;11.77;;;16.20;92.20;;;;;;5020110;28;20037;-73
2022/01/25 11:40:28;;;;;;;22.25;12.45;;;17.00;92.90;;;;;;5019142;28;20420;-73
2022/01/25 11:43:13;;;;;;;18.70;9.63;;;18.10;92.30;;;;;;5018252;28;20072;-73
2022/01/25 11:45:45;;;;;;;24.10;10.38;;;17.60;92.40;;;;;;5017778;28;20060;-74
2022/01/25 11:48:11;;;;;;;16.13;9.90;;;17.40;92.40;;;;;;5016912;28;20042;-74
2022/01/25 11:50:42;;;;;;;15.75;8.68;;;17.40;92.80;;;;;;5020793;28;20049;-75
2022/01/25 11:53:18;;;;;;;13.95;8.93;;;18.00;92.10;;;;;;5019581;28;20119;-75
2022/01/25 11:55:52;;;;;;;20.00;9.20;;;18.40;91.70;;;;;;5026454;28;20032;-75
2022/01/25 11:58:32;;;;;;;17.50;8.80;;;18.20;92.00;;;;;;5023598;28;20116;-75
2022/01/25 12:01:02;;;;;;;17.80;9.20;;;18.40;92.00;;;;;;5031730;28;20033;-78
2022/01/25 12:03:28;;;;;;;17.45;8.95;;;19.10;91.10;;;;;;5034195;28;20385;-75
2022/01/25 12:06:05;;;;;;;12.50;8.57;;;19.30;91.20;;;;;;5033204;28;20041;-75
2022/01/25 12:08:49;;;;;;;15.98;9.45;;;19.80;91.10;;;;;;5019033;28;20125;-74
2022/01/25 12:11:48;;;;;;;13.43;8.07;;;18.30;90.80;;;;;;5018470;28;20034;-75
2022/01/25 12:14:18;;;;;;;13.38;7.80;;;19.10;91.40;;;;;;5019294;28;20041;-73
2022/01/25 12:16:54;;;;;;;12.43;8.90;;;19.50;91.20;;;;;;5021735;28;20056;-77
2022/01/25 12:19:47;;;;;;;14.20;8.85;;;18.60;91.20;;;;;;5025704;28;20048;-76
2022/01/25 12:22:26;;;;;;;18.77;8.30;;;18.90;91.50;;;;;;5018384;28;20049;-75
2022/01/25 12:25:07;;;;;;;13.07;8.73;;;18.50;91.20;;;;;;5025065;28;20044;-77
2022/01/25 12:27:47;;;;;;;14.55;8.50;;;19.20;91.70;;;;;;5018913;28;21134;-76
2022/01/25 12:30:14;;;;;;;15.18;8.73;;;19.30;91.10;;;;;;5025728;28;20823;-76
2022/01/25 12:32:58;;;;;;;11.25;7.80;;;19.80;91.10;;;;;;5007908;28;20033;-75
2022/01/25 12:35:37;;;;;;;11.40;8.07;;;17.80;91.70;;;;;;5020497;28;20044;-77
2022/01/25 12:38:10;;;;;;;12.07;8.20;;;19.30;91.40;;;;;;5023182;28;20044;-77
2022/01/25 12:41:07;;;;;;;11.88;8.50;;;18.60;91.10;;;;;;5023691;28;20040;-76
2022/01/25 12:43:38;;;;;;;13.30;8.20;;;18.50;91.60;;;;;;5006815;28;20113;-76
2022/01/25 12:46:06;;;;;;;13.98;7.97;;;20.40;90.60;;;;;;5024202;28;20044;-73
2022/01/25 12:48:46;;;;;;;17.38;9.13;;;20.90;89.80;;;;;;5023640;28;20037;-74
2022/01/25 12:51:15;;;;;;;12.90;7.88;;;19.20;89.90;;;;;;5026721;28;20044;-76
2022/01/25 12:53:44;;;;;;;18.35;8.63;;;20.10;89.70;;;;;;5026699;28;20219;-77
2022/01/25 12:56:16;;;;;;;17.52;8.63;;;20.50;89.10;;;;;;5022739;28;20118;-74
2022/01/25 12:58:43;;;;;;;;;;;20.00;89.50;;;;;;5025333;28;20044;-76
2022/01/25 13:01:13;;;;;;;14.18;8.82;;;20.30;88.40;;;;;;5021500;28;19920;-75
2022/01/25 13:03:59;;;;;;;15.52;9.00;;;20.80;87.80;;;;;;5022895;28;20049;-74
2022/01/25 13:06:48;;;;;;;16.98;9.45;;;21.30;87.20;;;;;;5041153;28;20048;-73
2022/01/25 13:09:40;;;;;;;13.95;8.68;;;20.90;88.60;;;;;;5039563;28;20060;-74
2022/01/25 13:12:15;;;;;;;15.65;10.48;;;20.00;88.80;;;;;;5042230;28;20163;-76
2022/01/25 13:14:48;;;;;;;14.73;9.73;;;20.70;89.90;;;;;;5046483;28;20086;-73
2022/01/25 13:17:17;;;;;;;17.80;9.25;;;21.50;87.10;;;;;;5038659;28;20103;-74
2022/01/25 13:19:54;;;;;;;13.48;9.90;;;19.70;89.00;;;;;;5040040;28;20041;-75
2022/01/25 13:22:32;;;;;;;13.82;9.60;;;20.20;88.60;;;;;;5038909;28;20065;-74
2022/01/25 13:27:45;;;;;;;16.23;9.43;;;21.20;88.20;;;;;;5039837;28;20374;-75
2022/01/25 13:32:59;;;;;;;14.40;9.30;;;21.80;87.40;;;;;;5041098;28;20545;-77
2022/01/25 13:35:31;;;;;;;14.50;9.75;;;22.00;87.30;;;;;;5043198;28;20037;-75
2022/01/25 13:38:13;;;;;;;17.58;10.30;;;21.60;88.20;;;;;;5042615;28;20453;-76
2022/01/25 13:41:05;;;;;;;10.73;8.40;;;22.20;89.00;;;;;;5040286;28;20497;-76
2022/01/25 13:46:11;;;;;;;12.35;8.05;;;21.40;88.90;;;;;;5040792;28;20052;-75
2022/01/25 13:48:38;;;;;;;13.00;8.07;;;20.30;90.40;;;;;;5044113;28;20033;-74
2022/01/25 13:51:08;;;;;;;11.77;8.25;;;21.00;90.20;;;;;;5041000;28;20040;-77
2022/01/25 13:53:36;;;;;;;14.13;8.50;;;21.30;89.50;;;;;;5039959;28;20064;-76
2022/01/25 13:56:11;;;;;;;14.20;8.77;;;20.00;90.20;;;;;;5042151;28;20114;-75
2022/01/25 13:58:41;;;;;;;12.80;8.05;;;20.60;90.30;;;;;;5047843;28;20080;-76
2022/01/25 14:01:13;;;;;;;15.90;7.97;;;20.70;90.10;;;;;;5038984;28;20489;-76
2022/01/25 14:04:03;;;;;;;12.27;8.25;;;19.40;90.90;;;;;;5034110;28;20033;-75
2022/01/25 14:06:36;;;;;;;12.50;8.80;;;19.70;90.90;;;;;;5037920;28;20508;-75
2022/01/25 14:09:19;;;;;;;15.13;8.55;;;19.90;90.80;;;;;;5030259;28;20046;-74
2022/01/25 14:25:24;;;;;;;17.02;8.40;;;20.20;90.80;;;;;;5036511;28;20539;-72
2022/01/25 14:27:56;;;;;;;17.65;10.15;;;20.70;90.50;;;;;;5042093;28;20037;-73
2022/01/25 14:30:22;;;;;;;;;;;20.30;90.70;;;;;;5049301;28;25165;-76
2022/01/25 14:33:10;;;;;;;14.18;9.30;;;20.10;90.70;;;;;;5046248;28;19913;-79
2022/01/25 14:35:51;;;;;;;13.98;8.88;;;19.00;91.90;;;;;;5026947;28;20045;-75
2022/01/25 14:38:30;;;;;;;12.88;8.85;;;19.70;91.50;;;;;;5041474;28;20289;-76
2022/01/25 14:40:57;;;;;;;16.13;9.73;;;19.90;91.50;;;;;;5039131;28;20048;-78
2022/01/25 14:43:30;;;;;;;15.43;9.68;;;19.70;91.60;;;;;;5037287;28;20125;-76
2022/01/25 14:46:13;;;;;;;18.25;10.15;;;20.00;91.70;;;;;;5038749;28;20603;-77
2022/01/25 14:48:44;;;;;;;16.67;9.23;;;19.90;91.50;;;;;;5038805;28;20094;-74
2022/01/25 14:51:12;;;;;;;14.27;8.70;;;19.70;91.90;;;;;;5040822;28;20049;-78
2022/01/25 14:53:43;;;;;;;14.95;9.40;;;20.40;91.60;;;;;;5044148;28;20132;-77
2022/01/25 14:56:13;;;;;;;13.52;9.65;;;20.10;91.50;;;;;;5033749;28;20047;-77
2022/01/25 15:01:20;;;;;;;18.17;9.68;;;18.70;92.90;;;;;;5038269;28;20037;-74
2022/01/25 15:03:47;;;;;;;13.90;9.25;;;18.60;92.90;;;;;;5040782;28;20034;-78